Time;durP1;ratioP1;P1;durP2;ratioP2;P2;SDS_P1;SDS_P2;PMS_P1;PMS_P2;Temp;Humidity;BMP_temperature;BMP_pressure;BME280_temperature;BME280_humidity;BME280_pressure;Samples;Min_cycle;Max_cycle;Signal;HPM_P1;HPM_P2
2022/01/11 00:00:44;;;;;;;71.63;38.28;;;;;;;1.50;100.00;103022.88;5088599;28;20185;-44
2022/01/11 00:03:14;;;;;;;73.15;38.88;;;;;;;1.50;100.00;103025.53;5090773;28;20602;-43
2022/01/11 00:05:49;;;;;;;69.22;37.88;;;;;;;1.50;100.00;103014.06;5089612;28;20190;-41
2022/01/11 00:08:15;;;;;;;70.38;37.88;;;;;;;1.49;100.00;103020.19;5090110;28;20196;-42
2022/01/11 00:13:14;;;;;;;70.43;37.40;;;;;;;1.50;100.00;103028.16;5090242;28;20182;-46
2022/01/11 00:15:40;;;;;;;68.15;36.63;;;;;;;1.53;100.00;103014.16;5089827;28;20196;-46
2022/01/11 00:18:06;;;;;;;65.45;37.03;;;;;;;1.53;100.00;103023.00;5090282;28;20182;-44
2022/01/11 00:20:31;;;;;;;71.25;37.80;;;;;;;1.51;100.00;103034.34;5090128;28;20180;-44
2022/01/11 00:25:26;;;;;;;64.40;36.58;;;;;;;1.48;100.00;103027.22;5089862;28;20197;-44
2022/01/11 00:27:52;;;;;;;67.65;36.30;;;;;;;1.46;100.00;103030.66;5090197;28;20174;-44
2022/01/11 00:30:18;;;;;;;69.53;36.08;;;;;;;1.51;100.00;103022.06;5088625;28;20185;-44
2022/01/11 00:32:49;;;;;;;65.65;36.88;;;;;;;1.51;100.00;103022.06;5090121;28;20168;-43
2022/01/11 00:35:16;;;;;;;65.88;35.60;;;;;;;1.48;100.00;103029.84;5088391;28;20190;-45
2022/01/11 00:37:43;;;;;;;62.08;34.95;;;;;;;1.55;100.00;103036.25;5088454;28;20157;-44
2022/01/11 00:40:10;;;;;;;65.80;35.47;;;;;;;1.53;100.00;103037.94;5089985;28;20273;-44
2022/01/11 00:42:36;;;;;;;61.28;33.35;;;;;;;1.51;100.00;103027.34;5088391;28;20703;-44
2022/01/11 00:45:09;;;;;;;65.57;34.72;;;;;;;1.49;100.00;103026.38;5088627;28;20206;-43
2022/01/11 00:47:35;;;;;;;58.55;33.92;;;;;;;1.49;100.00;103031.66;5088894;28;20243;-44
2022/01/11 00:50:01;;;;;;;63.78;33.95;;;;;;;1.49;100.00;103044.88;5089975;28;20181;-43
2022/01/11 00:52:27;;;;;;;60.22;33.10;;;;;;;1.55;100.00;103036.25;5089658;28;20258;-44
2022/01/11 00:54:52;;;;;;;59.67;33.75;;;;;;;1.51;100.00;103036.97;5088361;28;20568;-44
2022/01/11 00:57:18;;;;;;;60.47;33.60;;;;;;;1.53;100.00;103041.50;5088362;28;20184;-43
2022/01/11 00:59:43;;;;;;;60.72;32.58;;;;;;;1.51;100.00;103040.53;5088172;28;20728;-43
2022/01/11 01:02:09;;;;;;;58.15;33.35;;;;;;;1.48;100.00;103037.78;5088281;28;20185;-44
2022/01/11 01:04:34;;;;;;;61.40;32.47;;;;;;;1.53;100.00;103054.72;5088040;28;20201;-45
2022/01/11 01:06:59;;;;;;;52.17;30.60;;;;;;;1.55;100.00;103046.81;5088029;28;20213;-46
2022/01/11 01:09:35;;;;;;;53.95;30.13;;;;;;;1.55;100.00;103049.47;5088411;28;20294;-44
2022/01/11 01:12:01;;;;;;;56.53;31.73;;;;;;;1.48;100.00;103058.03;5088151;28;20178;-43
2022/01/11 01:14:27;;;;;;;53.63;30.52;;;;;;;1.51;100.00;103066.03;5088216;28;20184;-43
2022/01/11 01:16:53;;;;;;;54.67;30.98;;;;;;;1.52;100.00;103058.19;5087846;28;20712;-43
2022/01/11 01:19:27;;;;;;;49.42;29.85;;;;;;;1.50;100.00;103067.78;5072553;28;20180;-43
2022/01/11 01:21:55;;;;;;;49.72;29.95;;;;;;;1.50;100.00;103067.78;5088347;28;20174;-47
2022/01/11 01:24:21;;;;;;;49.53;30.55;;;;;;;1.44;100.00;103060.56;5087845;28;20197;-45
2022/01/11 01:26:47;;;;;;;49.88;30.00;;;;;;;1.45;100.00;103066.75;5091870;28;20581;-42
2022/01/11 01:29:13;;;;;;;56.47;31.50;;;;;;;1.44;100.00;103065.84;5092171;28;20207;-43
2022/01/11 01:31:38;;;;;;;50.67;29.17;;;;;;;1.46;100.00;103062.34;5093308;28;20180;-44
2022/01/11 01:34:04;;;;;;;49.97;28.13;;;;;;;1.49;100.00;103068.66;5093796;28;20162;-43
2022/01/11 01:36:30;;;;;;;48.83;29.10;;;;;;;1.46;100.00;103075.56;5092614;28;20212;-44
2022/01/11 01:38:56;;;;;;;53.53;30.63;;;;;;;1.43;100.00;103081.63;5075229;28;20634;-44
2022/01/11 01:41:22;;;;;;;52.28;28.90;;;;;;;1.46;100.00;103088.78;5093344;28;20219;-44
2022/01/11 01:43:51;;;;;;;49.33;29.00;;;;;;;1.44;100.00;103092.28;5092129;28;20198;-44
2022/01/11 01:46:17;;;;;;;52.00;29.17;;;;;;;1.41;100.00;103091.25;5092217;28;20204;-47
2022/01/11 01:48:43;;;;;;;54.47;29.58;;;;;;;1.42;100.00;103080.75;5092984;28;20162;-41
2022/01/11 01:51:10;;;;;;;56.92;29.77;;;;;;;1.42;100.00;103091.31;5107209;28;20645;-41
2022/01/11 01:53:37;;;;;;;47.75;27.98;;;;;;;1.40;100.00;103085.06;5113608;28;20204;-44
2022/01/11 01:56:03;;;;;;;52.13;30.58;;;;;;;1.42;100.00;103082.47;5113494;28;20256;-43
2022/01/11 01:58:29;;;;;;;52.65;29.60;;;;;;;1.40;100.00;103094.72;5112429;28;20173;-45
2022/01/11 02:01:03;;;;;;;49.35;27.67;;;;;;;1.40;100.00;103086.78;5107447;28;20176;-42
2022/01/11 02:03:31;;;;;;;51.90;28.85;;;;;;;1.41;100.00;103086.84;5108760;28;20192;-42
2022/01/11 02:05:58;;;;;;;49.58;28.17;;;;;;;1.43;100.00;103092.19;5107579;28;20242;-44
2022/01/11 02:08:26;;;;;;;49.80;30.02;;;;;;;1.42;100.00;103096.59;5113790;28;20174;-41
2022/01/11 02:10:53;;;;;;;49.35;28.33;;;;;;;1.47;100.00;103104.69;5098080;28;20184;-44
2022/01/11 02:13:19;;;;;;;51.67;28.70;;;;;;;1.43;100.00;103095.72;5074888;28;20663;-42
2022/01/11 02:15:45;;;;;;;52.67;29.48;;;;;;;1.44;100.00;103096.63;5091078;28;20295;-45
2022/01/11 02:18:12;;;;;;;50.28;29.67;;;;;;;1.40;100.00;103103.56;5111396;28;20227;-41
2022/01/11 02:20:45;;;;;;;53.60;29.58;;;;;;;1.41;100.00;103104.44;5111612;28;20172;-42
2022/01/11 02:23:16;;;;;;;50.78;30.08;;;;;;;1.41;100.00;103105.34;5112069;28;20193;-47
2022/01/11 02:25:43;;;;;;;52.63;29.55;;;;;;;1.42;100.00;103109.81;5112797;28;20537;-43
2022/01/11 02:28:12;;;;;;;50.75;28.60;;;;;;;1.46;100.00;103104.63;5112007;28;20518;-47
2022/01/11 02:30:39;;;;;;;45.47;28.55;;;;;;;1.42;100.00;103104.53;5111678;28;20176;-42
2022/01/11 02:33:11;;;;;;;51.25;28.27;;;;;;;1.43;100.00;103110.69;5111878;28;20364;-49
2022/01/11 02:35:37;;;;;;;49.63;28.33;;;;;;;1.46;100.00;103094.94;5110935;28;20557;-44
2022/01/11 02:38:02;;;;;;;50.75;29.17;;;;;;;1.42;100.00;103107.16;5112562;28;20163;-44
2022/01/11 02:40:28;;;;;;;46.28;27.83;;;;;;;1.40;100.00;103100.00;5111297;28;20173;-45
2022/01/11 02:42:53;;;;;;;48.00;27.33;;;;;;;1.43;100.00;103110.69;5111515;28;20603;-46
2022/01/11 02:45:21;;;;;;;49.20;28.88;;;;;;;1.42;100.00;103100.94;5110651;28;20213;-45
2022/01/11 02:47:49;;;;;;;49.67;28.35;;;;;;;1.41;100.00;103100.06;5111284;28;20577;-44
2022/01/11 02:50:16;;;;;;;52.22;29.00;;;;;;;1.39;100.00;103104.38;5111394;28;20265;-44
2022/01/11 02:52:46;;;;;;;46.22;28.23;;;;;;;1.41;100.00;103102.69;5112881;28;20154;-46
2022/01/11 02:55:14;;;;;;;48.60;27.58;;;;;;;1.48;100.00;103106.47;5110869;28;20193;-42
2022/01/11 02:57:41;;;;;;;48.42;28.00;;;;;;;1.47;100.00;103102.03;5111262;28;20204;-40
2022/01/11 03:00:22;;;;;;;47.30;26.35;;;;;;;1.42;100.00;103114.16;5110967;28;20305;-43
2022/01/11 03:02:49;;;;;;;43.17;26.65;;;;;;;1.37;100.00;103100.78;5112588;28;20170;-44
2022/01/11 03:05:20;;;;;;;42.65;25.95;;;;;;;1.36;100.00;103099.00;5112002;28;20274;-40
2022/01/11 03:07:47;;;;;;;41.90;26.02;;;;;;;1.36;100.00;103108.69;5110944;28;20256;-45
2022/01/11 03:10:28;;;;;;;42.53;25.83;;;;;;;1.43;100.00;103106.31;5094372;28;20161;-41
2022/01/11 03:12:54;;;;;;;45.45;26.73;;;;;;;1.46;100.00;103105.50;5110857;28;20252;-40
2022/01/11 03:15:20;;;;;;;41.25;25.73;;;;;;;1.50;100.00;103112.69;5110674;28;20353;-42
2022/01/11 03:17:50;;;;;;;44.13;25.50;;;;;;;1.50;100.00;103122.38;5110113;28;20173;-44
2022/01/11 03:20:17;;;;;;;46.28;27.00;;;;;;;1.48;100.00;103109.09;5110530;28;20199;-42
2022/01/11 03:22:43;;;;;;;42.00;25.45;;;;;;;1.46;100.00;103113.44;5110507;28;20276;-44
2022/01/11 03:25:12;;;;;;;44.53;24.98;;;;;;;1.41;100.00;103107.09;5110178;28;20277;-44
2022/01/11 03:27:40;;;;;;;38.40;24.58;;;;;;;1.43;100.00;103123.91;5110347;28;20585;-44
2022/01/11 03:30:08;;;;;;;39.47;23.67;;;;;;;1.39;100.00;103120.22;5110439;28;20196;-45
2022/01/11 03:32:37;;;;;;;42.50;25.00;;;;;;;1.40;100.00;103116.78;5110654;28;20519;-45
2022/01/11 03:35:12;;;;;;;40.30;24.05;;;;;;;1.41;100.00;103115.00;5094462;28;20775;-43
2022/01/11 03:37:39;;;;;;;40.03;24.88;;;;;;;1.37;100.00;103114.00;5109754;28;20220;-43
2022/01/11 03:40:08;;;;;;;43.95;24.52;;;;;;;1.43;100.00;103115.97;5111708;28;20161;-44
2022/01/11 03:42:34;;;;;;;39.03;24.52;;;;;;;1.43;100.00;103123.91;5111356;28;20184;-44
2022/01/11 03:45:01;;;;;;;39.00;23.73;;;;;;;1.49;100.00;103124.13;5110052;28;20215;-44
2022/01/11 03:47:27;;;;;;;37.20;24.60;;;;;;;1.51;100.00;103116.22;5109588;28;20185;-45
2022/01/11 03:49:54;;;;;;;38.50;23.48;;;;;;;1.44;100.00;103110.75;5109130;28;20188;-44
2022/01/11 03:52:20;;;;;;;39.25;24.13;;;;;;;1.47;100.00;103122.28;5111505;28;20177;-45
2022/01/11 03:57:28;;;;;;;34.90;23.52;;;;;;;1.45;100.00;103122.22;5109751;28;20589;-45
2022/01/11 03:59:54;;;;;;;38.97;23.45;;;;;;;1.47;100.00;103120.53;5089279;28;20233;-45
2022/01/11 04:02:20;;;;;;;34.95;22.25;;;;;;;1.47;100.00;103124.91;5072612;28;20178;-44
2022/01/11 04:04:52;;;;;;;36.03;22.80;;;;;;;1.51;100.00;103121.53;5089117;28;20210;-45
2022/01/11 04:07:24;;;;;;;34.55;22.10;;;;;;;1.52;100.00;103115.41;5089030;28;20211;-45
2022/01/11 04:09:52;;;;;;;31.92;21.38;;;;;;;1.49;100.00;103125.84;5092960;28;20235;-46
2022/01/11 04:12:19;;;;;;;32.78;21.90;;;;;;;1.51;100.00;103119.81;5109044;28;20173;-44
2022/01/11 04:14:44;;;;;;;35.47;21.60;;;;;;;1.54;100.00;103119.91;5109129;28;20220;-44
2022/01/11 04:17:10;;;;;;;37.10;22.35;;;;;;;1.55;100.00;103126.06;5109061;28;20204;-46
2022/01/11 04:19:35;;;;;;;32.60;21.67;;;;;;;1.56;100.00;103119.97;5109272;28;20268;-43
2022/01/11 04:22:02;;;;;;;33.40;21.60;;;;;;;1.55;100.00;103120.78;5109591;28;20215;-45
2022/01/11 04:24:27;;;;;;;32.60;21.50;;;;;;;1.49;100.00;103120.56;5109396;28;20208;-45
2022/01/11 04:26:53;;;;;;;34.45;21.75;;;;;;;1.55;100.00;103119.06;5107622;28;20618;-44
2022/01/11 04:29:19;;;;;;;30.85;20.48;;;;;;;1.61;100.00;103116.63;5109954;28;20169;-46
2022/01/11 04:31:44;;;;;;;33.85;21.75;;;;;;;1.56;100.00;103107.66;5109117;28;20629;-45
2022/01/11 04:34:16;;;;;;;29.92;21.48;;;;;;;1.52;100.00;103108.38;5109253;28;20166;-45
2022/01/11 04:36:42;;;;;;;32.50;21.17;;;;;;;1.46;100.00;103110.78;5109082;28;20687;-42
2022/01/11 04:39:11;;;;;;;33.05;21.27;;;;;;;1.47;100.00;103104.69;5109137;28;20161;-43
2022/01/11 04:41:38;;;;;;;34.22;20.10;;;;;;;1.47;100.00;103109.06;5109471;28;20699;-41
2022/01/11 04:44:04;;;;;;;31.50;21.45;;;;;;;1.46;100.00;103101.97;5109142;28;20259;-43
2022/01/11 04:46:30;;;;;;;30.33;20.17;;;;;;;1.44;100.00;103112.47;5109390;28;20208;-40
2022/01/11 04:48:59;;;;;;;31.50;20.30;;;;;;;1.46;100.00;103105.50;5109222;28;20600;-43
2022/01/11 04:51:27;;;;;;;29.05;19.90;;;;;;;1.46;100.00;103100.22;5109157;28;20176;-43
2022/01/11 04:53:53;;;;;;;31.60;21.17;;;;;;;1.50;100.00;103101.25;5109246;28;20620;-42
2022/01/11 04:56:20;;;;;;;32.67;21.50;;;;;;;1.50;100.00;103098.59;5108997;28;20181;-42
2022/01/11 04:58:46;;;;;;;31.05;20.70;;;;;;;1.48;100.00;103100.28;5109263;28;20538;-42
2022/01/11 05:01:11;;;;;;;31.70;20.13;;;;;;;1.43;100.00;103102.78;5109129;28;20189;-42
2022/01/11 05:03:39;;;;;;;31.15;19.88;;;;;;;1.46;100.00;103096.69;5109051;28;20187;-42
2022/01/11 05:06:04;;;;;;;29.35;20.38;;;;;;;1.49;100.00;103095.06;5109112;28;20880;-42
2022/01/11 05:08:31;;;;;;;28.30;19.73;;;;;;;1.48;100.00;103098.53;5108947;28;20166;-40
2022/01/11 05:10:57;;;;;;;30.60;20.17;;;;;;;1.48;100.00;103087.97;5109104;28;20173;-43
2022/01/11 05:13:23;;;;;;;29.95;20.30;;;;;;;1.43;100.00;103093.09;5109183;28;20165;-42
2022/01/11 05:15:48;;;;;;;28.10;19.70;;;;;;;1.35;100.00;103097.19;5108712;28;20742;-42
2022/01/11 05:18:15;;;;;;;31.38;21.05;;;;;;;1.30;100.00;103093.50;5109119;28;20255;-41
2022/01/11 05:20:42;;;;;;;29.48;20.10;;;;;;;1.25;100.00;103100.38;5108820;28;20538;-44
2022/01/11 05:23:10;;;;;;;31.75;20.23;;;;;;;1.24;100.00;103099.44;5109006;28;20177;-43
2022/01/11 05:25:36;;;;;;;30.08;20.48;;;;;;;1.22;100.00;103108.16;5108366;28;20209;-43
2022/01/11 05:28:01;;;;;;;29.17;19.95;;;;;;;1.24;100.00;103122.31;5109098;28;20190;-42
2022/01/11 05:30:28;;;;;;;31.33;20.23;;;;;;;1.25;100.00;103124.13;5108958;28;20176;-42
2022/01/11 05:32:54;;;;;;;28.25;20.33;;;;;;;1.28;100.00;103118.94;5108851;28;20169;-41
2022/01/11 05:35:22;;;;;;;30.80;21.35;;;;;;;1.33;100.00;103124.41;5109110;28;20184;-41
2022/01/11 05:37:48;;;;;;;29.48;19.67;;;;;;;1.38;100.00;103131.66;5110198;28;20543;-44
2022/01/11 05:40:16;;;;;;;31.00;20.40;;;;;;;1.41;100.00;103131.75;5108880;28;20407;-42
2022/01/11 05:42:44;;;;;;;29.63;19.85;;;;;;;1.40;100.00;103126.41;5109005;28;20525;-45
2022/01/11 05:45:11;;;;;;;28.20;19.63;;;;;;;1.42;100.00;103136.22;5108707;28;20238;-45
2022/01/11 05:47:37;;;;;;;29.45;19.83;;;;;;;1.48;100.00;103137.28;5108752;28;20217;-42
2022/01/11 05:50:06;;;;;;;26.73;19.13;;;;;;;1.48;100.00;103132.00;5108764;28;20177;-43
2022/01/11 05:52:33;;;;;;;26.50;19.30;;;;;;;1.50;100.00;103125.03;5091933;28;20258;-43
2022/01/11 05:54:59;;;;;;;29.38;19.80;;;;;;;1.47;100.00;103127.56;5108606;28;20238;-40
2022/01/11 05:57:24;;;;;;;32.15;19.67;;;;;;;1.54;100.00;103130.47;5108883;28;20173;-43
2022/01/11 05:59:50;;;;;;;30.83;20.05;;;;;;;1.54;100.00;103134.84;5109049;28;20182;-43
2022/01/11 06:02:15;;;;;;;31.27;19.98;;;;;;;1.53;100.00;103133.03;5091542;28;20192;-43
2022/01/11 06:04:42;;;;;;;29.10;19.13;;;;;;;1.56;100.00;103138.47;5108365;28;20230;-43
2022/01/11 06:07:09;;;;;;;30.90;20.40;;;;;;;1.59;100.00;103142.09;5108502;28;20230;-41
2022/01/11 06:09:35;;;;;;;27.83;20.02;;;;;;;1.59;100.00;103134.16;5108953;28;20646;-43
2022/01/11 06:12:00;;;;;;;28.75;20.15;;;;;;;1.62;100.00;103136.03;5109571;28;20254;-45
2022/01/11 06:14:26;;;;;;;28.75;19.55;;;;;;;1.66;100.00;103130.00;5112486;28;20231;-42
2022/01/11 06:16:51;;;;;;;26.95;19.10;;;;;;;1.62;100.00;103146.63;5112638;28;20664;-42
2022/01/11 06:19:17;;;;;;;31.27;19.70;;;;;;;1.56;100.00;103143.75;5112238;28;20178;-43
2022/01/11 06:21:48;;;;;;;33.85;20.75;;;;;;;1.59;100.00;103134.16;5104754;28;20224;-42
2022/01/11 06:24:14;;;;;;;28.70;19.65;;;;;;;1.60;100.00;103133.34;5111441;28;21025;-44
2022/01/11 06:26:41;;;;;;;31.00;19.63;;;;;;;1.62;100.00;103144.84;5111726;28;20258;-45
2022/01/11 06:29:07;;;;;;;31.42;20.02;;;;;;;1.57;100.00;103140.25;5111553;28;20174;-42
2022/01/11 06:31:35;;;;;;;35.65;20.23;;;;;;;1.57;100.00;103140.25;5111101;28;20214;-45
2022/01/11 06:34:02;;;;;;;30.80;20.80;;;;;;;1.53;100.00;103155.09;5108680;28;20169;-44
2022/01/11 06:36:29;;;;;;;32.33;19.75;;;;;;;1.57;100.00;103162.25;5111861;28;20203;-41
2022/01/11 06:38:55;;;;;;;30.38;20.33;;;;;;;1.59;100.00;103154.41;5113407;28;20165;-43
2022/01/11 06:41:25;;;;;;;34.35;20.40;;;;;;;1.58;100.00;103152.63;5111967;28;20252;-43
2022/01/11 06:43:53;;;;;;;29.17;19.50;;;;;;;1.60;100.00;103154.47;5112064;28;20539;-43
2022/01/11 06:46:23;;;;;;;28.25;19.25;;;;;;;1.65;100.00;103158.16;5111752;28;20246;-47
2022/01/11 06:48:51;;;;;;;31.33;19.73;;;;;;;1.64;100.00;103158.13;5111345;28;20185;-42
2022/01/11 06:51:18;;;;;;;33.90;19.98;;;;;;;1.65;100.00;103160.81;5111945;28;20181;-42
2022/01/11 06:53:47;;;;;;;35.22;20.65;;;;;;;1.64;100.00;103159.03;5111413;28;20164;-48
2022/01/11 06:56:13;;;;;;;33.40;20.48;;;;;;;1.68;100.00;103159.13;5111058;28;20562;-43
2022/01/11 06:58:38;;;;;;;36.60;21.42;;;;;;;1.67;100.00;103167.91;5111112;28;20177;-44
2022/01/11 07:01:05;;;;;;;37.28;21.73;;;;;;;1.67;100.00;103152.94;5111446;28;20173;-43
2022/01/11 07:03:32;;;;;;;35.50;20.73;;;;;;;1.74;100.00;103156.72;5111029;28;20184;-44
2022/01/11 07:06:17;;;;;;;38.17;22.48;;;;;;;1.68;100.00;103172.34;5111359;28;20236;-48
2022/01/11 07:08:43;;;;;;;41.00;22.33;;;;;;;1.68;100.00;103169.69;5111204;28;20166;-44
2022/01/11 07:11:11;;;;;;;39.65;22.05;;;;;;;1.65;100.00;103176.66;5110780;28;20223;-44
2022/01/11 07:13:37;;;;;;;37.63;23.80;;;;;;;1.70;100.00;103179.47;5112695;27;20173;-42
2022/01/11 07:16:03;;;;;;;41.67;23.08;;;;;;;1.69;100.00;103185.63;5110763;28;20204;-41
2022/01/11 07:18:30;;;;;;;43.60;23.02;;;;;;;1.70;100.00;103178.56;5111160;28;20545;-41
2022/01/11 07:21:01;;;;;;;38.58;21.42;;;;;;;1.65;100.00;103178.41;5110971;28;20173;-42
2022/01/11 07:23:29;;;;;;;47.60;23.50;;;;;;;1.63;100.00;103182.75;5111142;28;20260;-43
2022/01/11 07:25:54;;;;;;;47.45;24.08;;;;;;;1.60;100.00;103177.34;5111020;28;20293;-44
2022/01/11 07:28:23;;;;;;;46.45;23.75;;;;;;;1.67;100.00;103168.81;5110574;28;20181;-41
2022/01/11 07:30:51;;;;;;;42.35;23.70;;;;;;;1.71;100.00;103173.34;5110591;28;20176;-43
2022/01/11 07:33:17;;;;;;;49.22;25.40;;;;;;;1.70;100.00;103183.88;5110121;28;20230;-47
2022/01/11 07:35:45;;;;;;;49.92;25.05;;;;;;;1.63;100.00;103188.91;5110224;28;20201;-45
2022/01/11 07:38:11;;;;;;;53.75;26.13;;;;;;;1.61;100.00;103185.31;5110626;28;20655;-42
2022/01/11 07:40:38;;;;;;;54.85;25.90;;;;;;;1.59;100.00;103184.38;5110253;28;20181;-44
2022/01/11 07:43:15;;;;;;;56.90;26.75;;;;;;;1.57;100.00;103185.16;5110378;28;20156;-43
2022/01/11 07:45:50;;;;;;;54.45;25.10;;;;;;;1.53;100.00;103192.09;5103315;28;20215;-43
2022/01/11 07:48:18;;;;;;;53.45;25.40;;;;;;;1.54;100.00;103182.41;5109804;28;20173;-44
2022/01/11 07:50:51;;;;;;;53.53;25.52;;;;;;;1.55;100.00;103195.69;5099096;28;20188;-44
2022/01/11 07:53:16;;;;;;;54.00;26.02;;;;;;;1.61;100.00;103189.72;5111110;28;20645;-42
2022/01/11 07:55:47;;;;;;;56.85;27.02;;;;;;;1.60;100.00;103198.50;5107197;28;20185;-43
2022/01/11 07:58:15;;;;;;;56.42;25.55;;;;;;;1.67;100.00;103192.59;5107850;28;20177;-42
2022/01/11 08:00:41;;;;;;;58.00;26.38;;;;;;;1.62;100.00;103196.81;5090158;28;20174;-51
2022/01/11 08:03:06;;;;;;;55.72;26.50;;;;;;;1.63;100.00;103201.25;5090059;28;20166;-43
2022/01/11 08:05:47;;;;;;;60.25;27.65;;;;;;;1.64;100.00;103196.03;5089461;28;20236;-42
2022/01/11 08:08:14;;;;;;;60.30;26.73;;;;;;;1.64;100.00;103205.69;5089565;28;20170;-43
2022/01/11 08:10:39;;;;;;;59.53;30.02;;;;;;;1.69;100.00;103204.13;5089610;28;20234;-42
2022/01/11 08:13:10;;;;;;;63.70;27.02;;;;;;;1.68;100.00;103211.97;5089716;28;20649;-43
2022/01/11 08:15:37;;;;;;;52.38;25.90;;;;;;;1.72;100.00;103205.97;5090493;28;20228;-42
2022/01/11 08:18:05;;;;;;;60.20;26.98;;;;;;;1.63;100.00;103219.72;5105134;28;20557;-39
2022/01/11 08:20:32;;;;;;;62.88;26.67;;;;;;;1.68;100.00;103204.94;5097028;28;20212;-42
2022/01/11 08:22:59;;;;;;;63.72;28.63;;;;;;;1.69;100.00;103211.16;5070132;28;20748;-41
2022/01/11 08:25:24;;;;;;;65.78;26.85;;;;;;;1.74;100.00;103207.81;5089037;28;20281;-43
2022/01/11 08:27:50;;;;;;;61.33;27.02;;;;;;;1.76;100.00;103213.16;5089416;28;20186;-43
2022/01/11 08:30:17;;;;;;;64.43;28.30;;;;;;;1.75;100.00;103212.28;5091045;28;20239;-42
2022/01/11 08:32:48;;;;;;;74.03;29.50;;;;;;;1.78;100.00;103222.06;5089474;28;20166;-42
2022/01/11 08:35:14;;;;;;;65.35;28.65;;;;;;;1.77;100.00;103223.81;5090175;28;20189;-41
2022/01/11 08:37:40;;;;;;;72.25;27.30;;;;;;;1.77;100.00;103214.94;5089339;28;20184;-41
2022/01/11 08:40:06;;;;;;;65.40;26.98;;;;;;;1.80;100.00;103209.78;5089619;28;20650;-42
2022/01/11 08:42:32;;;;;;;71.72;29.17;;;;;;;1.84;100.00;103222.28;5089509;28;20174;-41
2022/01/11 08:45:00;;;;;;;81.28;28.42;;;;;;;1.87;100.00;103218.84;5089302;28;20202;-42
2022/01/11 08:47:32;;;;;;;71.10;28.48;;;;;;;1.86;100.00;103225.88;5089900;28;20197;-43
2022/01/11 08:49:59;;;;;;;77.88;27.83;;;;;;;1.90;100.00;103219.84;5090510;28;20551;-41
2022/01/11 08:52:33;;;;;;;76.50;29.20;;;;;;;1.87;100.00;103225.03;5089292;28;20630;-42
2022/01/11 08:54:58;;;;;;;80.90;30.83;;;;;;;1.89;100.00;103228.63;5088889;28;20190;-42
2022/01/11 08:57:24;;;;;;;81.35;30.60;;;;;;;1.90;100.00;103222.47;5089057;28;20177;-40
2022/01/11 08:59:50;;;;;;;87.70;33.30;;;;;;;1.95;100.00;103226.19;5089283;28;20235;-40
2022/01/11 09:02:16;;;;;;;88.25;31.65;;;;;;;1.96;100.00;103220.06;5089050;28;20260;-41
2022/01/11 09:04:43;;;;;;;82.10;29.65;;;;;;;1.98;100.00;103218.38;5072337;28;20205;-39
2022/01/11 09:07:14;;;;;;;82.93;30.83;;;;;;;1.97;100.00;103219.22;5088548;28;20189;-43
2022/01/11 09:09:40;;;;;;;82.22;31.20;;;;;;;2.01;100.00;103221.16;5089163;28;20173;-44
2022/01/11 09:12:12;;;;;;;87.53;31.08;;;;;;;2.04;100.00;103225.63;5088878;28;20173;-41
2022/01/11 09:14:40;;;;;;;80.72;29.88;;;;;;;2.09;100.00;103210.81;5088689;28;20193;-41
2022/01/11 09:17:07;;;;;;;87.78;33.60;;;;;;;2.08;100.00;103213.41;5088714;28;20174;-41
2022/01/11 09:19:32;;;;;;;91.35;32.20;;;;;;;2.10;100.00;103225.84;5088691;28;20174;-42
2022/01/11 09:21:59;;;;;;;92.95;32.85;;;;;;;2.09;100.00;103215.22;5088802;28;20274;-43
2022/01/11 09:24:29;;;;;;;81.50;32.65;;;;;;;2.13;100.00;103222.41;5089832;28;20729;-43
2022/01/11 09:26:58;;;;;;;91.65;32.78;;;;;;;2.16;100.00;103219.88;5089077;28;20265;-36
2022/01/11 09:29:27;;;;;;;84.35;32.50;;;;;;;2.19;100.00;103225.28;5088848;28;20174;-42
2022/01/11 09:31:56;;;;;;;91.22;32.75;;;;;;;2.16;100.00;103227.81;5088488;28;20166;-41
2022/01/11 09:34:24;;;;;;;93.40;32.78;;;;;;;2.24;100.00;103234.25;5088534;28;20174;-40
2022/01/11 09:36:50;;;;;;;87.20;34.25;;;;;;;2.23;100.00;103245.66;5088295;28;20173;-41
2022/01/11 09:39:15;;;;;;;92.32;32.92;;;;;;;2.27;100.00;103237.00;5088482;28;20260;-40
2022/01/11 09:41:42;;;;;;;91.00;33.65;;;;;;;2.26;100.00;103244.03;5093657;28;20173;-44
2022/01/11 09:44:11;;;;;;;89.38;33.17;;;;;;;2.29;100.00;103240.59;5107480;28;20660;-42
2022/01/11 09:46:38;;;;;;;89.15;32.30;;;;;;;2.27;100.00;103242.28;5110376;28;20220;-42
2022/01/11 09:49:04;;;;;;;86.65;31.80;;;;;;;2.26;100.00;103245.81;5114397;28;20244;-42
2022/01/11 09:51:34;;;;;;;88.85;31.67;;;;;;;2.29;100.00;103245.00;5112864;28;20684;-41
2022/01/11 09:54:00;;;;;;;89.78;31.88;;;;;;;2.26;100.00;103245.81;5112188;28;20181;-41
2022/01/11 09:56:26;;;;;;;91.60;32.63;;;;;;;2.30;100.00;103238.88;5111565;28;20317;-40
2022/01/11 09:58:53;;;;;;;84.72;32.95;;;;;;;2.25;100.00;103226.41;5108625;28;20177;-43
2022/01/11 10:01:39;;;;;;;82.13;31.40;;;;;;;2.27;100.00;103231.72;5113102;28;20200;-43
2022/01/11 10:04:11;;;;;;;81.10;31.85;;;;;;;2.31;100.00;103227.44;5112683;28;20196;-42
2022/01/11 10:07:07;;;;;;;77.60;32.53;;;;;;;2.31;100.00;103235.38;5087637;28;20496;-41
2022/01/11 10:09:48;;;;;;;83.53;32.15;;;;;;;2.29;100.00;103224.72;5111384;28;20180;-44
2022/01/11 10:12:15;;;;;;;77.28;33.13;;;;;;;2.38;100.00;103229.44;5111836;28;20181;-42
2022/01/11 10:14:50;;;;;;;79.20;32.28;;;;;;;2.37;100.00;103219.72;5112466;28;20205;-42
2022/01/11 10:17:19;;;;;;;83.80;34.03;;;;;;;2.46;100.00;103228.84;5111731;28;20185;-42
2022/01/11 10:19:59;;;;;;;68.03;30.90;;;;;;;2.47;100.00;103212.16;5112297;28;20645;-40
2022/01/11 10:22:24;;;;;;;60.05;26.42;;;;;;;2.47;100.00;103221.81;5111901;28;20165;-41
2022/01/11 10:24:53;;;;;;;58.40;27.52;;;;;;;2.50;100.00;103211.34;5113038;28;20221;-43
2022/01/11 10:27:32;;;;;;;58.13;26.55;;;;;;;2.62;100.00;103218.78;5111658;28;20169;-42
2022/01/11 10:30:06;;;;;;;52.85;25.27;;;;;;;2.62;100.00;103213.50;5111968;28;20677;-41
2022/01/11 10:32:39;;;;;;;49.40;25.48;;;;;;;2.62;100.00;103216.13;5111954;28;20165;-42
2022/01/11 10:35:18;;;;;;;42.55;23.13;;;;;;;2.68;100.00;103219.88;5111820;28;20193;-40
2022/01/11 10:37:49;;;;;;;45.53;22.38;;;;;;;2.69;100.00;103226.09;5111713;28;20173;-41
2022/01/11 10:40:34;;;;;;;41.13;20.80;;;;;;;2.66;100.00;103221.59;5112036;28;20555;-41
2022/01/11 10:43:23;;;;;;;34.33;19.30;;;;;;;2.65;100.00;103217.16;5111715;28;20161;-45
2022/01/11 10:45:55;;;;;;;30.33;15.65;;;;;;;2.57;100.00;103209.81;5111559;28;20250;-41
2022/01/11 10:48:24;;;;;;;30.05;16.25;;;;;;;2.64;100.00;103210.03;5111415;28;20685;-43
2022/01/11 10:50:59;;;;;;;25.88;14.85;;;;;;;2.67;100.00;103207.50;5095430;28;20227;-43
2022/01/11 10:53:32;;;;;;;26.33;15.60;;;;;;;2.77;100.00;103211.34;5111740;28;20169;-43
2022/01/11 10:56:00;;;;;;;27.50;14.60;;;;;;;2.71;100.00;103205.84;5111510;28;20560;-42
2022/01/11 10:58:32;;;;;;;28.73;15.05;;;;;;;2.82;100.00;103217.72;5102375;28;20169;-43
2022/01/11 11:00:58;;;;;;;30.35;14.95;;;;;;;2.81;100.00;103218.53;5092271;28;20638;-44
2022/01/11 11:03:31;;;;;;;27.25;15.38;;;;;;;2.80;100.00;103203.53;5091376;28;20253;-42
2022/01/11 11:06:10;;;;;;;25.42;14.30;;;;;;;2.88;100.00;103207.28;5090623;28;20208;-41
2022/01/11 11:08:44;;;;;;;25.23;15.23;;;;;;;2.88;100.00;103211.69;5091227;28;20221;-41
2022/01/11 11:11:32;;;;;;;27.92;15.65;;;;;;;2.93;100.00;103207.47;5083753;28;20467;-44
2022/01/11 11:14:13;;;;;;;30.30;16.05;;;;;;;2.99;100.00;103199.69;5092749;28;20215;-42
2022/01/11 11:16:44;;;;;;;25.15;14.77;;;;;;;2.96;100.00;103198.72;5091003;28;20185;-42
2022/01/11 11:19:11;;;;;;;33.03;15.93;;;;;;;3.11;100.00;103206.25;5092241;28;20254;-41
2022/01/11 11:21:43;;;;;;;26.95;16.13;;;;;;;3.03;100.00;103198.94;5078240;28;20166;-43